createdAt,value
2019-04-22T00:01:12.952Z,11.70
2019-04-22T00:03:45.531Z,11.70
2019-04-22T00:06:38.169Z,11.60
2019-04-22T00:09:02.280Z,11.30
2019-04-22T00:11:40.165Z,11.50
2019-04-22T00:14:00.676Z,11.50
2019-04-22T00:16:47.516Z,11.40
2019-04-22T00:19:17.662Z,11.40
2019-04-22T00:21:41.912Z,11.20
2019-04-22T00:24:13.731Z,11.30
2019-04-22T00:26:44.377Z,11.30
2019-04-22T00:29:39.198Z,11.10
2019-04-22T00:32:05.484Z,11.20
2019-04-22T00:34:33.861Z,11.20
2019-04-22T00:37:11.683Z,11.00
2019-04-22T00:39:40.946Z,11.20
2019-04-22T00:42:08.075Z,11.30
2019-04-22T00:47:21.160Z,11.30
2019-04-22T00:52:18.667Z,11.30
2019-04-22T00:54:45.590Z,11.40
2019-04-22T00:57:15.840Z,11.20
2019-04-22T00:59:48.496Z,11.20
2019-04-22T01:02:24.075Z,10.90
2019-04-22T01:04:55.263Z,10.80
2019-04-22T01:07:17.745Z,10.80
2019-04-22T01:09:58.550Z,10.60
2019-04-22T01:12:28.422Z,10.30
2019-04-22T01:14:54.668Z,10.30
2019-04-22T01:17:25.596Z,10.20
2019-04-22T01:19:58.612Z,10.20
2019-04-22T01:22:39.360Z,10.20
2019-04-22T01:24:57.580Z,10.10
2019-04-22T01:27:22.159Z,10.20
2019-04-22T01:29:49.911Z,10.30
2019-04-22T01:32:17.611Z,10.00
2019-04-22T01:34:54.921Z,10.30
2019-04-22T01:37:28.835Z,10.20
2019-04-22T01:40:12.718Z,10.10
2019-04-22T01:42:44.977Z,10.10
2019-04-22T01:45:14.050Z,9.90
2019-04-22T01:47:44.156Z,9.90
2019-04-22T01:50:16.763Z,10.00
2019-04-22T01:52:47.244Z,10.10
2019-04-22T01:55:21.175Z,9.90
2019-04-22T01:57:41.409Z,9.80
2019-04-22T02:00:09.078Z,9.60
2019-04-22T02:02:49.186Z,9.50
2019-04-22T02:05:17.643Z,9.70
2019-04-22T02:07:53.058Z,9.70
2019-04-22T02:10:30.103Z,9.60
2019-04-22T02:12:54.124Z,9.50
2019-04-22T02:15:23.388Z,9.70
2019-04-22T02:18:10.732Z,9.30
2019-04-22T02:20:24.950Z,9.00
2019-04-22T02:23:45.883Z,9.30
2019-04-22T02:28:42.777Z,9.20
2019-04-22T02:31:20.646Z,9.20
2019-04-22T02:38:51.717Z,9.10
2019-04-22T02:51:16.514Z,9.50
2019-04-22T02:54:17.417Z,9.30
2019-04-22T03:04:03.376Z,9.10
2019-04-22T03:08:59.324Z,8.60
2019-04-22T03:14:01.442Z,8.60
2019-04-22T03:21:23.912Z,8.70
2019-04-22T03:26:35.197Z,8.80
2019-04-22T03:28:56.920Z,8.90
2019-04-22T03:49:37.196Z,8.20
2019-04-22T04:07:22.103Z,7.70
2019-04-22T04:09:39.252Z,7.90
2019-04-22T04:12:21.611Z,7.80
2019-04-22T04:14:55.667Z,7.80
2019-04-22T04:19:56.749Z,7.50
2019-04-22T04:22:32.207Z,7.70
2019-04-22T04:25:08.189Z,7.60
2019-04-22T04:40:10.166Z,7.60
2019-04-22T04:55:12.291Z,7.80
2019-04-22T04:57:54.871Z,7.80
2019-04-22T05:00:32.384Z,7.80
2019-04-22T05:12:52.728Z,8.10
2019-04-22T05:15:15.329Z,8.00
2019-04-22T05:22:41.296Z,8.50
2019-04-22T05:25:13.013Z,8.70
2019-04-22T05:27:40.128Z,8.90
2019-04-22T05:30:23.736Z,8.90
2019-04-22T05:32:54.781Z,8.80
2019-04-22T05:35:14.474Z,8.70
2019-04-22T05:37:51.895Z,8.70
2019-04-22T05:40:20.021Z,8.70
2019-04-22T05:42:46.215Z,8.70
2019-04-22T05:47:52.298Z,9.10
2019-04-22T05:50:19.027Z,9.70
2019-04-22T05:52:57.302Z,9.70
2019-04-22T05:55:34.360Z,9.60
2019-04-22T05:57:57.726Z,9.50
2019-04-22T06:05:38.433Z,9.90
2019-04-22T06:08:03.902Z,10.10
2019-04-22T06:10:45.392Z,10.20
2019-04-22T06:13:07.712Z,10.20
2019-04-22T06:15:54.378Z,10.40
2019-04-22T06:18:16.111Z,10.90
2019-04-22T06:20:53.915Z,11.20
2019-04-22T06:23:26.968Z,11.30
2019-04-22T06:26:07.887Z,10.90
2019-04-22T06:28:31.558Z,10.80
2019-04-22T06:30:57.101Z,10.90
2019-04-22T06:33:30.210Z,11.00
2019-04-22T06:35:57.889Z,11.10
2019-04-22T06:38:39.237Z,11.30
2019-04-22T06:41:04.253Z,11.40
2019-04-22T06:43:33.821Z,11.60
2019-04-22T06:46:00.683Z,11.90
2019-04-22T06:48:33.177Z,12.10
2019-04-22T06:51:00.192Z,12.30
2019-04-22T06:53:34.705Z,12.50
2019-04-22T06:56:06.660Z,12.60
2019-04-22T06:58:34.980Z,12.90
2019-04-22T07:01:09.939Z,13.00
2019-04-22T07:03:47.602Z,13.10
2019-04-22T07:06:13.025Z,13.20
2019-04-22T07:09:09.372Z,13.30
2019-04-22T07:11:05.733Z,13.50
2019-04-22T07:13:42.942Z,13.60
2019-04-22T07:16:20.307Z,13.70
2019-04-22T07:18:44.931Z,14.00
2019-04-22T07:21:18.102Z,14.40
2019-04-22T07:23:51.231Z,14.60
2019-04-22T07:26:18.365Z,14.60
2019-04-22T07:28:49.051Z,14.80
2019-04-22T07:31:16.286Z,15.00
2019-04-22T07:33:51.737Z,15.10
2019-04-22T07:38:47.177Z,15.20
2019-04-22T07:41:25.584Z,15.50
2019-04-22T07:46:28.304Z,15.70
2019-04-22T07:48:57.994Z,15.90
2019-04-22T07:51:26.783Z,16.10
2019-04-22T07:54:01.845Z,16.10
2019-04-22T07:56:30.539Z,16.20
2019-04-22T07:59:07.642Z,16.30
2019-04-22T08:01:33.724Z,16.40
2019-04-22T08:06:43.806Z,16.60
2019-04-22T08:09:13.844Z,16.60
2019-04-22T08:14:16.159Z,16.80
2019-04-22T08:16:43.765Z,16.90
2019-04-22T08:19:15.502Z,17.10
2019-04-22T08:21:45.483Z,17.10
2019-04-22T08:24:18.405Z,17.20
2019-04-22T08:26:52.029Z,17.40
2019-04-22T08:29:19.125Z,17.50
2019-04-22T08:31:56.630Z,17.60
2019-04-22T08:34:26.041Z,17.70
2019-04-22T08:37:24.035Z,17.80
2019-04-22T08:39:25.322Z,17.90
2019-04-22T08:41:51.742Z,18.00
2019-04-22T08:44:52.216Z,18.10
2019-04-22T08:49:39.107Z,18.30
2019-04-22T08:54:37.663Z,18.50
2019-04-22T08:57:10.670Z,18.60
2019-04-22T08:59:42.318Z,18.60
2019-04-22T09:02:16.341Z,18.80
2019-04-22T09:04:42.099Z,18.90
2019-04-22T09:10:02.070Z,19.10
2019-04-22T09:12:23.905Z,19.20
2019-04-22T09:14:47.601Z,19.30
2019-04-22T09:17:22.772Z,19.40
2019-04-22T09:19:55.881Z,19.40
2019-04-22T09:22:23.282Z,19.60
2019-04-22T09:24:54.796Z,19.70
2019-04-22T09:27:37.043Z,19.80
2019-04-22T09:29:59.650Z,19.80
2019-04-22T09:32:26.318Z,19.90
2019-04-22T09:34:58.415Z,20.00
2019-04-22T09:37:41.941Z,20.10
2019-04-22T09:40:04.655Z,20.30
2019-04-22T09:42:31.895Z,20.30
2019-04-22T09:45:01.559Z,20.40
2019-04-22T09:47:40.853Z,20.50
2019-04-22T09:50:26.018Z,20.60
2019-04-22T09:52:37.216Z,20.70
2019-04-22T09:57:39.744Z,20.90
2019-04-22T10:00:13.987Z,21.00
2019-04-22T10:05:11.498Z,21.20
2019-04-22T10:07:44.900Z,21.20
2019-04-22T10:10:15.266Z,21.30
2019-04-22T10:15:18.639Z,21.60
2019-04-22T10:17:49.659Z,21.70
2019-04-22T10:20:22.349Z,21.80
2019-04-22T10:22:55.063Z,21.80
2019-04-22T10:25:24.167Z,21.90
2019-04-22T10:27:55.241Z,21.90
2019-04-22T10:30:35.804Z,22.10
2019-04-22T10:32:54.488Z,22.20
2019-04-22T10:35:12.241Z,22.20
2019-04-22T10:37:36.593Z,22.30
2019-04-22T10:40:11.637Z,22.40
2019-04-22T10:42:41.493Z,22.50
2019-04-22T10:45:12.486Z,22.60
2019-04-22T10:47:42.353Z,22.60
2019-04-22T10:50:14.542Z,22.60
2019-04-22T10:52:43.869Z,22.80
2019-04-22T10:55:13.868Z,22.90
2019-04-22T10:57:44.407Z,22.90
2019-04-22T11:00:15.638Z,23.00
2019-04-22T11:02:45.775Z,23.10
2019-04-22T11:05:16.718Z,23.30
2019-04-22T11:07:51.939Z,23.80
2019-04-22T11:10:35.314Z,24.50
2019-04-22T11:12:49.359Z,25.40
2019-04-22T11:15:18.938Z,25.80
2019-04-22T11:17:49.501Z,26.90
2019-04-22T11:20:21.804Z,26.90
2019-04-22T11:22:52.970Z,27.50
2019-04-22T11:25:23.649Z,27.20
2019-04-22T11:27:53.710Z,27.20
2019-04-22T11:30:27.543Z,27.20
2019-04-22T11:32:56.252Z,27.00
2019-04-22T11:35:25.878Z,27.20
2019-04-22T11:37:55.217Z,27.10
2019-04-22T11:40:33.776Z,27.50
2019-04-22T11:42:56.514Z,27.20
2019-04-22T11:45:27.040Z,27.00
2019-04-22T11:47:57.263Z,26.50
2019-04-22T11:50:28.471Z,26.20
2019-04-22T11:52:58.601Z,26.20
2019-04-22T11:55:28.830Z,25.80
2019-04-22T11:57:58.929Z,25.70
2019-04-22T12:00:30.849Z,25.80
2019-04-22T12:03:00.863Z,26.10
2019-04-22T12:05:32.147Z,26.40
2019-04-22T12:08:03.000Z,26.50
2019-04-22T12:10:37.753Z,26.20
2019-04-22T12:13:03.942Z,25.80
2019-04-22T12:15:33.424Z,25.70
2019-04-22T12:18:03.689Z,25.30
2019-04-22T12:20:35.015Z,25.30
2019-04-22T12:23:05.161Z,25.20
2019-04-22T12:25:47.676Z,25.20
2019-04-22T12:28:06.225Z,25.10
2019-04-22T12:30:35.700Z,25.20
2019-04-22T12:33:07.820Z,25.20
2019-04-22T12:35:36.929Z,25.40
2019-04-22T12:38:08.764Z,25.30
2019-04-22T12:40:45.431Z,25.30
2019-04-22T12:43:12.198Z,25.50
2019-04-22T12:45:40.382Z,25.60
2019-04-22T12:48:10.149Z,25.80
2019-04-22T12:50:43.465Z,26.00
2019-04-22T12:53:14.959Z,26.30
2019-04-22T12:55:42.060Z,26.50
2019-04-22T12:58:11.868Z,26.60
2019-04-22T13:00:42.804Z,26.70
2019-04-22T13:03:12.136Z,26.80
2019-04-22T13:05:43.023Z,27.00
2019-04-22T13:08:13.767Z,27.20
2019-04-22T13:10:54.264Z,27.10
2019-04-22T13:13:15.420Z,26.80
2019-04-22T13:15:44.880Z,26.90
2019-04-22T13:18:27.007Z,26.80
2019-04-22T13:20:46.386Z,26.80
2019-04-22T13:23:15.840Z,26.80
2019-04-22T13:25:45.211Z,26.70
2019-04-22T13:28:15.474Z,26.50
2019-04-22T13:30:46.441Z,26.60
2019-04-22T13:33:16.860Z,26.40
2019-04-22T13:35:47.977Z,26.20
2019-04-22T13:38:17.558Z,25.90
2019-04-22T13:43:20.759Z,25.70
2019-04-22T13:45:50.320Z,25.90
2019-04-22T13:48:41.218Z,26.10
2019-04-22T13:51:20.792Z,25.90
2019-04-22T13:53:53.452Z,25.90
2019-04-22T13:54:12.658Z,25.90
2019-04-22T13:56:12.489Z,25.80
2019-04-22T13:58:35.504Z,26.10
2019-04-22T14:00:56.777Z,25.90
2019-04-22T14:03:29.036Z,25.90
2019-04-22T14:06:00.826Z,25.90
2019-04-22T14:08:31.355Z,26.00
2019-04-22T14:11:14.808Z,26.20
2019-04-22T14:13:32.327Z,26.10
2019-04-22T14:16:02.127Z,26.10
2019-04-22T14:18:32.757Z,26.10
2019-04-22T14:21:02.844Z,26.40
2019-04-22T14:23:33.012Z,26.60
2019-04-22T14:26:02.325Z,26.60
2019-04-22T14:28:32.876Z,26.50
2019-04-22T14:31:02.423Z,26.40
2019-04-22T14:33:32.089Z,26.20
2019-04-22T14:36:02.564Z,26.00
2019-04-22T14:38:32.440Z,25.90
2019-04-22T14:41:02.531Z,25.80
2019-04-22T14:44:49.489Z,25.90
2019-04-22T14:46:29.232Z,25.60
2019-04-22T14:48:58.462Z,25.60
2019-04-22T14:51:21.298Z,25.60
2019-04-22T14:53:56.640Z,25.60
2019-04-22T14:56:08.455Z,25.70
2019-04-22T14:58:38.691Z,25.70
2019-04-22T15:01:08.977Z,25.60
2019-04-22T15:03:42.006Z,25.60
2019-04-22T15:06:10.557Z,25.50
2019-04-22T15:08:39.976Z,25.40
2019-04-22T15:11:10.867Z,25.40
2019-04-22T15:13:41.212Z,25.40
2019-04-22T15:16:15.948Z,25.50
2019-04-22T15:18:57.896Z,25.70
2019-04-22T15:21:29.078Z,25.80
2019-04-22T15:24:00.503Z,26.10
2019-04-22T15:26:30.718Z,26.20
2019-04-22T15:29:00.253Z,26.20
2019-04-22T15:31:29.606Z,26.50
2019-04-22T15:34:00.473Z,26.70
2019-04-22T15:36:30.471Z,27.10
2019-04-22T15:38:59.826Z,27.00
2019-04-22T15:41:30.555Z,27.20
2019-04-22T15:44:01.574Z,27.50
2019-04-22T15:46:32.098Z,27.60
2019-04-22T15:49:02.125Z,27.40
2019-04-22T15:51:32.260Z,27.50
2019-04-22T15:54:01.609Z,27.60
2019-04-22T15:56:32.629Z,27.50
2019-04-22T15:59:15.646Z,27.30
2019-04-22T16:01:36.995Z,27.30
2019-04-22T16:04:05.057Z,27.20
2019-04-22T16:06:34.925Z,27.60
2019-04-22T16:09:06.814Z,27.50
2019-04-22T16:11:36.183Z,27.40
2019-04-22T16:14:06.447Z,27.40
2019-04-22T16:16:37.146Z,27.40
2019-04-22T16:19:06.942Z,27.50
2019-04-22T16:21:45.106Z,27.60
2019-04-22T16:24:11.776Z,27.20
2019-04-22T16:26:44.425Z,27.10
2019-04-22T16:29:15.890Z,26.80
2019-04-22T16:31:45.358Z,26.70
2019-04-22T16:34:15.482Z,27.00
2019-04-22T16:36:45.110Z,27.10
2019-04-22T16:39:15.232Z,27.20
2019-04-22T16:41:44.837Z,27.20
2019-04-22T16:44:14.492Z,27.10
2019-04-22T16:46:43.906Z,27.10
2019-04-22T16:49:13.967Z,27.00
2019-04-22T16:51:43.464Z,26.90
2019-04-22T16:54:13.861Z,26.70
2019-04-22T16:56:43.856Z,26.60
2019-04-22T16:59:14.779Z,26.40
2019-04-22T17:01:46.281Z,26.30
2019-04-22T17:04:18.672Z,26.20
2019-04-22T17:06:49.791Z,26.10
2019-04-22T17:09:19.716Z,26.10
2019-04-22T17:11:49.894Z,25.90
2019-04-22T17:14:29.694Z,26.10
2019-04-22T17:16:50.670Z,25.90
2019-04-22T17:19:21.542Z,25.90
2019-04-22T17:21:50.994Z,25.60
2019-04-22T17:24:21.662Z,25.40
2019-04-22T17:26:52.525Z,25.20
2019-04-22T17:29:22.781Z,25.10
2019-04-22T17:31:58.417Z,24.90
2019-04-22T17:34:23.474Z,24.90
2019-04-22T17:36:53.234Z,24.80
2019-04-22T17:39:36.002Z,24.50
2019-04-22T17:42:18.417Z,24.50
2019-04-22T17:44:48.479Z,24.30
2019-04-22T17:47:23.657Z,24.40
2019-04-22T17:50:08.660Z,24.10
2019-04-22T17:52:33.131Z,24.10
2019-04-22T17:55:02.707Z,23.90
2019-04-22T17:57:32.527Z,23.80
2019-04-22T18:00:00.053Z,23.60
2019-04-22T18:02:32.246Z,23.30
2019-04-22T18:04:55.046Z,23.40
2019-04-22T18:07:38.501Z,23.20
2019-04-22T18:10:28.200Z,23.00
2019-04-22T18:12:44.299Z,22.90
2019-04-22T18:15:14.630Z,22.80
2019-04-22T18:17:46.350Z,22.80
2019-04-22T18:20:14.447Z,22.60
2019-04-22T18:22:39.664Z,22.40
2019-04-22T18:25:07.510Z,22.10
2019-04-22T18:27:57.139Z,21.90
2019-04-22T18:30:16.262Z,21.70
2019-04-22T18:32:50.529Z,21.50
2019-04-22T18:35:25.197Z,21.40
2019-04-22T18:37:54.801Z,21.20
2019-04-22T18:40:27.457Z,21.10
2019-04-22T18:42:56.559Z,20.90
2019-04-22T18:45:39.818Z,20.70
2019-04-22T18:47:54.917Z,20.60
2019-04-22T18:50:37.084Z,20.40
2019-04-22T18:53:19.519Z,20.30
2019-04-22T18:55:37.716Z,20.30
2019-04-22T18:58:16.826Z,20.10
2019-04-22T19:00:36.838Z,20.00
2019-04-22T19:03:16.006Z,19.80
2019-04-22T19:06:09.516Z,19.70
2019-04-22T19:08:34.663Z,19.50
2019-04-22T19:11:08.215Z,19.20
2019-04-22T19:14:00.804Z,19.20
2019-04-22T19:16:31.033Z,19.10
2019-04-22T19:18:44.261Z,18.80
2019-04-22T19:21:13.110Z,18.80
2019-04-22T19:23:42.718Z,18.70
2019-04-22T19:26:11.927Z,18.70
2019-04-22T19:28:48.442Z,18.60
2019-04-22T19:31:21.936Z,18.60
2019-04-22T19:33:46.259Z,18.50
2019-04-22T19:36:14.529Z,18.40
2019-04-22T19:38:38.809Z,18.40
2019-04-22T19:41:19.709Z,18.40
2019-04-22T19:43:51.890Z,18.20
2019-04-22T19:46:19.477Z,18.20
2019-04-22T19:48:54.686Z,18.10
2019-04-22T19:51:27.888Z,18.00
2019-04-22T19:53:56.262Z,18.00
2019-04-22T19:56:21.147Z,17.70
2019-04-22T19:58:52.978Z,17.60
2019-04-22T20:01:36.887Z,17.60
2019-04-22T20:04:16.527Z,17.50
2019-04-22T20:06:45.589Z,17.50
2019-04-22T20:09:22.461Z,17.40
2019-04-22T20:11:45.111Z,17.20
2019-04-22T20:14:16.801Z,17.30
2019-04-22T20:16:43.944Z,17.30
2019-04-22T20:19:25.440Z,17.30
2019-04-22T20:21:51.224Z,17.30
2019-04-22T20:24:11.449Z,17.30
2019-04-22T20:26:56.528Z,17.20
2019-04-22T20:29:31.069Z,17.20
2019-04-22T20:31:59.073Z,17.10
2019-04-22T20:34:30.135Z,17.00
2019-04-22T20:37:03.585Z,17.00
2019-04-22T20:39:35.500Z,16.90
2019-04-22T20:42:21.305Z,16.80
2019-04-22T20:44:35.562Z,16.70
2019-04-22T20:47:00.060Z,16.60
2019-04-22T20:49:36.684Z,16.60
2019-04-22T20:52:16.389Z,16.50
2019-04-22T20:54:39.018Z,16.50
2019-04-22T20:57:03.073Z,16.40
2019-04-22T20:59:42.909Z,16.30
2019-04-22T21:02:06.630Z,16.30
2019-04-22T21:04:33.612Z,16.20
2019-04-22T21:07:12.105Z,16.10
2019-04-22T21:09:47.227Z,16.20
2019-04-22T21:12:12.584Z,16.00
2019-04-22T21:14:52.814Z,16.10
2019-04-22T21:17:19.765Z,16.00
2019-04-22T21:19:58.367Z,15.90
2019-04-22T21:22:20.621Z,16.10
2019-04-22T21:24:48.400Z,16.00
2019-04-22T21:27:42.326Z,16.00
2019-04-22T21:29:47.199Z,16.00
2019-04-22T21:32:23.957Z,15.90
2019-04-22T21:35:03.274Z,15.90
2019-04-22T21:37:35.486Z,15.90
2019-04-22T21:39:55.619Z,16.20
2019-04-22T21:42:26.687Z,16.00
2019-04-22T21:44:56.986Z,15.80
2019-04-22T21:47:35.225Z,15.80
2019-04-22T21:50:25.513Z,15.80
2019-04-22T21:52:33.509Z,15.80
2019-04-22T21:55:10.309Z,15.90
2019-04-22T21:57:50.522Z,16.00
2019-04-22T22:00:31.073Z,16.10
2019-04-22T22:02:52.193Z,16.30
2019-04-22T22:05:15.317Z,16.30
2019-04-22T22:07:40.360Z,16.30
2019-04-22T22:10:29.457Z,16.40
2019-04-22T22:13:00.722Z,17.00
2019-04-22T22:15:28.741Z,16.80
2019-04-22T22:17:54.338Z,16.70
2019-04-22T22:20:43.789Z,16.70
2019-04-22T22:23:14.990Z,16.60
2019-04-22T22:25:34.934Z,16.70
2019-04-22T22:28:29.908Z,16.90
2019-04-22T22:33:10.970Z,17.00
2019-04-22T22:35:40.823Z,17.00
2019-04-22T22:38:13.448Z,17.00
2019-04-22T22:40:28.623Z,16.80
2019-04-22T22:42:57.851Z,16.90
2019-04-22T22:45:37.398Z,16.80
2019-04-22T22:48:21.617Z,16.90
2019-04-22T22:50:47.846Z,16.90
2019-04-22T22:53:32.662Z,16.90
2019-04-22T22:55:53.246Z,17.00
2019-04-22T22:58:22.207Z,16.90
2019-04-22T23:00:50.500Z,16.70
2019-04-22T23:03:48.292Z,16.70
2019-04-22T23:05:59.056Z,16.80
2019-04-22T23:08:32.468Z,16.70
2019-04-22T23:11:13.433Z,16.70
2019-04-22T23:13:33.043Z,17.00
2019-04-22T23:15:55.429Z,16.90
2019-04-22T23:18:12.210Z,16.90
2019-04-22T23:20:47.255Z,17.00
2019-04-22T23:23:36.106Z,16.90
2019-04-22T23:26:17.464Z,16.90
2019-04-22T23:28:50.321Z,16.90
2019-04-22T23:31:19.286Z,16.80
2019-04-22T23:33:57.204Z,17.10
2019-04-22T23:36:27.589Z,17.00
2019-04-22T23:39:14.046Z,16.80
2019-04-22T23:44:16.049Z,16.80
2019-04-22T23:46:42.641Z,16.60
2019-04-22T23:49:17.988Z,16.40
2019-04-22T23:51:55.458Z,16.50
2019-04-22T23:54:25.732Z,16.40
2019-04-22T23:56:46.825Z,16.70
2019-04-22T23:59:38.607Z,16.70
